Tokyo Heliport, Japan

7:38 PM JST on October 20, 2014 (GMT +0900)
Tokyo (Haneda) International | Change Station
CLOSE
Current Station
Airport
Location: Tokyo,
Elevation: 26 ft
Nearby Weather Stations

Elev 26 ft 35.55 °N, 139.78 °E | Updated 8 minutes ago

Light Rain
Light Rain
72 °F
Feels Like 72 °F
N
8
Wind Variable Wind from South

Today
High -- | Low -- °F
--% Chance of Precip.
Yesterday
High -- | Low -- °F
Precip. -- in
5:50 AM 4:59 PM
Waning Crescent, 11% visible
Pressure 30.18 in
Visibility 6.2 miles
Clouds Few 3000 ft
Mostly Cloudy 6000 ft
Dew Point 57 °F
Humidity 60%
Rainfall 0.00 in
Snow Depth Not available.
UV 0 out of 12
Pollen Not available.
Air Quality Not available.
Flu Activity Not available.
METAR RJTT 201030Z 17007KT 9999 -RA FEW030 BKN060 22/14 Q1022 BECMG TL1100 30008KT

More Conditions Fewer Conditions

Pressure 30.18 in
Visibility 6.2 miles
Clouds Few 3000 ft
Mostly Cloudy 6000 ft
Dew Point 57 °F
Humidity 60%
Rainfall 0.00 in
Snow Depth Not available.
UV 0 out of 12
Pollen Not available.
Air Quality Not available.
Flu Activity Not available.
METAR RJTT 201030Z 17007KT 9999 -RA FEW030 BKN060 22/14 Q1022 BECMG TL1100 30008KT

More Conditions Fewer Conditions

10-Day Weather Forecast

Almanac

Astronomy

Oct. 20, 2014 Rise Set
Actual Time 5:50 AM JST 4:59 PM JST
Civil Twilight 5:25 AM JST 5:25 PM JST
Nautical Twilight 4:55 AM JST 5:55 PM JST
Astronomical Twilight 4:25 AM JST 6:24 PM JST
Moon 2:11 AM JST 2:56 PM JST
Length of Visible Light 12h 00m
Length of Day
11h 08m
Tomorrow will be 2m 8s shorter.
Waning Crescent, 11% of the Moon is Illuminated
Today
Waning Crescent
Oct 23
New
Oct 30
First Quarter
Nov 6
Full
Nov 14
Last Quarter

Yesterday's Extremes

Country Highs Country Lows

Community

WunderPhotos

Upload Photos

1,763,331 photos uploaded!

Nearby

Snow Depth

Not available.

Earthquake Activity

City Distance Mag. Time & Date
No recent earthquake activity has been reported nearby.
Minimum magnitude displayed is 2.5.

Coastal Water Temperatures

Place Temperature
No Stations Reporting

Nearby Weather Stations